createdAt,value
2018-04-14T00:02:02.973Z,0.67
2018-04-14T00:04:31.273Z,0.70
2018-04-14T00:07:00.227Z,0.60
2018-04-14T00:09:28.478Z,0.80
2018-04-14T00:11:56.795Z,0.60
2018-04-14T00:14:25.249Z,0.60
2018-04-14T00:16:53.546Z,0.63
2018-04-14T00:19:21.794Z,0.53
2018-04-14T00:21:50.699Z,0.60
2018-04-14T00:24:19.004Z,0.80
2018-04-14T00:26:48.061Z,0.60
2018-04-14T00:29:16.332Z,0.80
2018-04-14T00:31:44.907Z,0.60
2018-04-14T00:34:13.169Z,0.70
2018-04-14T00:36:41.606Z,0.80
2018-04-14T00:39:09.891Z,0.70
2018-04-14T00:41:38.375Z,0.63
2018-04-14T00:44:07.411Z,0.70
2018-04-14T00:46:35.679Z,0.80
2018-04-14T00:49:03.964Z,0.70
2018-04-14T00:51:32.239Z,0.73
2018-04-14T00:54:02.054Z,0.70
2018-04-14T00:56:30.445Z,0.73
2018-04-14T00:59:00.329Z,0.70
2018-04-14T01:01:28.610Z,0.80
2018-04-14T01:03:57.684Z,0.53
2018-04-14T01:06:27.085Z,0.80
2018-04-14T01:08:55.435Z,0.70
2018-04-14T01:11:23.711Z,0.60
2018-04-14T01:13:51.968Z,0.67
2018-04-14T01:16:21.770Z,0.70
2018-04-14T01:18:50.286Z,0.80
2018-04-14T01:21:19.523Z,0.63
2018-04-14T01:23:47.786Z,0.60
2018-04-14T01:26:17.154Z,0.60
2018-04-14T01:28:45.442Z,0.60
2018-04-14T01:31:13.696Z,0.80
2018-04-14T01:33:41.988Z,0.70
2018-04-14T01:36:10.279Z,0.60
2018-04-14T01:38:38.531Z,0.70
2018-04-14T01:41:06.798Z,0.50
2018-04-14T01:43:35.100Z,0.80
2018-04-14T01:46:03.357Z,0.80
2018-04-14T01:48:31.641Z,0.60
2018-04-14T01:50:59.915Z,0.60
2018-04-14T01:53:28.182Z,0.60
2018-04-14T01:55:56.457Z,0.70
2018-04-14T01:58:24.718Z,0.50
2018-04-14T02:00:53.000Z,0.73
2018-04-14T02:03:21.276Z,0.50
2018-04-14T02:05:49.522Z,0.70
2018-04-14T02:08:17.849Z,0.70
2018-04-14T02:10:46.134Z,0.67
2018-04-14T02:13:14.543Z,0.80
2018-04-14T02:15:42.901Z,0.60
2018-04-14T02:18:11.277Z,0.60
2018-04-14T02:20:39.561Z,0.67
2018-04-14T02:23:07.827Z,0.60
2018-04-14T02:25:36.103Z,0.87
2018-04-14T02:28:06.277Z,0.60
2018-04-14T02:30:36.222Z,0.60
2018-04-14T02:33:04.490Z,0.60
2018-04-14T02:35:32.762Z,0.60
2018-04-14T02:38:01.022Z,0.90
2018-04-14T02:40:29.868Z,0.63
2018-04-14T02:42:58.146Z,0.60
2018-04-14T02:45:26.385Z,0.50
2018-04-14T02:47:54.669Z,0.43
2018-04-14T02:50:22.934Z,0.70
2018-04-14T02:52:51.349Z,0.60
2018-04-14T02:55:19.644Z,0.70
2018-04-14T02:57:47.904Z,0.60
2018-04-14T03:00:16.168Z,0.70
2018-04-14T03:02:44.450Z,0.50
2018-04-14T03:05:12.718Z,0.60
2018-04-14T03:07:42.508Z,0.60
2018-04-14T03:10:10.787Z,0.60
2018-04-14T03:12:39.046Z,0.50
2018-04-14T03:15:07.318Z,0.60
2018-04-14T03:17:36.343Z,0.50
2018-04-14T03:20:04.612Z,0.63
2018-04-14T03:22:32.877Z,0.60
2018-04-14T03:25:01.198Z,0.50
2018-04-14T03:27:29.574Z,0.60
2018-04-14T03:29:57.846Z,0.43
2018-04-14T03:32:26.383Z,0.40
2018-04-14T03:34:54.670Z,0.50
2018-04-14T03:37:22.944Z,0.53
2018-04-14T03:39:51.239Z,0.47
2018-04-14T03:42:19.532Z,0.60
2018-04-14T03:44:47.817Z,0.40
2018-04-14T03:47:16.119Z,0.50
2018-04-14T03:49:44.378Z,0.60
2018-04-14T03:52:12.646Z,0.60
2018-04-14T03:54:40.915Z,0.43
2018-04-14T03:57:09.213Z,0.50
2018-04-14T03:59:37.565Z,0.60
2018-04-14T04:02:05.846Z,0.40
2018-04-14T04:04:34.109Z,0.60
2018-04-14T04:07:02.383Z,0.60
2018-04-14T04:09:30.711Z,0.40
2018-04-14T04:11:59.760Z,0.50
2018-04-14T04:14:28.019Z,0.50
2018-04-14T04:16:56.305Z,0.67
2018-04-14T04:19:36.455Z,0.43
2018-04-14T04:22:16.482Z,0.40
2018-04-14T04:24:56.405Z,0.40
2018-04-14T04:27:24.442Z,0.40
2018-04-14T04:29:52.540Z,0.50
2018-04-14T04:32:20.747Z,0.50
2018-04-14T04:34:49.569Z,0.30
2018-04-14T04:37:17.643Z,0.50
2018-04-14T04:39:45.681Z,0.50
2018-04-14T04:42:13.961Z,0.40
2018-04-14T04:44:42.030Z,0.40
2018-04-14T04:47:10.858Z,0.60
2018-04-14T04:49:39.009Z,0.40
2018-04-14T04:52:07.051Z,0.50
2018-04-14T04:54:35.090Z,0.50
2018-04-14T04:57:03.127Z,0.43
2018-04-14T04:59:31.727Z,0.50
2018-04-14T05:01:59.779Z,0.47
2018-04-14T05:04:28.601Z,0.47
2018-04-14T05:06:56.828Z,0.50
2018-04-14T05:09:24.903Z,0.60
2018-04-14T05:11:52.987Z,0.50
2018-04-14T05:14:21.008Z,0.50
2018-04-14T05:16:49.052Z,0.40
2018-04-14T05:19:17.219Z,0.40
2018-04-14T05:21:45.573Z,0.40
2018-04-14T05:24:13.694Z,0.40
2018-04-14T05:26:41.731Z,0.50
2018-04-14T05:29:09.995Z,0.50
2018-04-14T05:31:38.048Z,0.70
2018-04-14T05:34:06.085Z,0.57
2018-04-14T05:36:34.116Z,0.60
2018-04-14T05:39:06.292Z,0.50
2018-04-14T05:41:34.333Z,0.70
2018-04-14T05:44:03.555Z,0.60
2018-04-14T05:46:33.219Z,0.60
2018-04-14T05:49:02.817Z,1.40
2018-04-14T05:51:31.436Z,8.33
2018-04-14T05:54:00.349Z,22.67
2018-04-14T05:56:29.412Z,51.43
2018-04-14T05:58:58.222Z,58.53
2018-04-14T06:01:26.514Z,64.30
2018-04-14T06:03:54.786Z,60.07
2018-04-14T06:06:23.611Z,72.83
2018-04-14T06:08:51.763Z,82.90
2018-04-14T06:11:20.006Z,80.60
2018-04-14T06:13:49.351Z,81.77
2018-04-14T06:16:17.751Z,78.83
2018-04-14T06:18:45.987Z,82.10
2018-04-14T06:21:14.109Z,80.57
2018-04-14T06:23:42.206Z,70.90
2018-04-14T06:26:10.322Z,74.73
2018-04-14T06:28:38.645Z,74.47
2018-04-14T06:31:07.711Z,73.47
2018-04-14T06:33:35.764Z,72.43
2018-04-14T06:36:03.810Z,71.77
2018-04-14T06:38:31.869Z,67.90
2018-04-14T06:40:59.909Z,66.33
2018-04-14T06:43:27.984Z,66.40
2018-04-14T06:45:56.142Z,54.57
2018-04-14T06:48:24.366Z,56.53
2018-04-14T06:50:52.450Z,54.43
2018-04-14T06:53:20.510Z,52.63
2018-04-14T06:55:48.585Z,51.17
2018-04-14T06:58:16.623Z,52.63
2018-04-14T07:00:44.703Z,50.73
2018-04-14T07:03:12.754Z,50.80
2018-04-14T07:05:40.907Z,49.13
2018-04-14T07:08:09.088Z,50.70
2018-04-14T07:10:37.158Z,46.37
2018-04-14T07:13:05.322Z,48.03
2018-04-14T07:15:33.439Z,48.27
2018-04-14T07:18:02.301Z,46.13
2018-04-14T07:20:30.628Z,44.37
2018-04-14T07:22:58.906Z,45.53
2018-04-14T07:25:27.084Z,46.50
2018-04-14T07:27:55.142Z,45.67
2018-04-14T07:30:23.257Z,44.23
2018-04-14T07:32:51.430Z,42.97
2018-04-14T07:35:19.724Z,42.00
2018-04-14T07:37:47.784Z,42.30
2018-04-14T07:40:15.839Z,42.50
2018-04-14T07:42:43.899Z,42.30
2018-04-14T07:45:12.014Z,41.67
2018-04-14T07:47:40.071Z,42.13
2018-04-14T07:50:08.126Z,42.00
2018-04-14T07:52:36.630Z,37.90
2018-04-14T07:55:04.694Z,40.47
2018-04-14T07:57:34.036Z,41.47
2018-04-14T08:00:02.106Z,36.43
2018-04-14T08:02:31.566Z,40.57
2018-04-14T08:05:00.362Z,37.80
2018-04-14T08:07:28.595Z,39.67
2018-04-14T08:09:56.931Z,38.10
2018-04-14T08:12:24.991Z,38.63
2018-04-14T08:14:53.159Z,37.67
2018-04-14T08:17:21.406Z,38.53
2018-04-14T08:19:49.479Z,36.77
2018-04-14T08:22:18.308Z,36.43
2018-04-14T08:24:46.546Z,37.17
2018-04-14T08:27:14.563Z,36.47
2018-04-14T08:29:42.616Z,37.07
2018-04-14T08:32:11.532Z,35.17
2018-04-14T08:34:39.779Z,34.13
2018-04-14T08:37:07.852Z,36.00
2018-04-14T08:39:35.945Z,32.23
2018-04-14T08:42:03.985Z,31.90
2018-04-14T08:44:32.174Z,34.23
2018-04-14T08:47:00.225Z,36.97
2018-04-14T08:49:28.281Z,40.47
2018-04-14T08:51:56.335Z,38.33
2018-04-14T08:54:24.713Z,28.93
2018-04-14T08:56:52.799Z,24.83
2018-04-14T08:59:20.875Z,28.93
2018-04-14T09:01:48.945Z,26.57
2018-04-14T09:04:17.342Z,28.23
2018-04-14T09:06:45.438Z,24.93
2018-04-14T09:09:13.828Z,23.07
2018-04-14T09:11:41.899Z,21.90
2018-04-14T09:14:09.943Z,19.30
2018-04-14T09:16:38.206Z,17.03
2018-04-14T09:19:06.507Z,14.80
2018-04-14T09:21:34.840Z,13.80
2018-04-14T09:24:04.425Z,12.57
2018-04-14T09:31:56.936Z,13.27
2018-04-14T09:34:54.334Z,13.03
2018-04-14T09:37:26.630Z,13.60
2018-04-14T09:39:55.756Z,12.20
2018-04-14T09:42:25.734Z,12.40
2018-04-14T09:47:33.379Z,10.97
2018-04-14T09:50:07.053Z,11.23
2018-04-14T09:52:35.568Z,9.83
2018-04-14T09:55:03.822Z,10.47
2018-04-14T09:57:32.113Z,10.50
2018-04-14T10:00:00.567Z,9.63
2018-04-14T10:02:34.482Z,19.00
2018-04-14T10:05:02.760Z,11.40
2018-04-14T10:07:31.286Z,12.17
2018-04-14T10:10:00.322Z,11.77
2018-04-14T10:12:29.008Z,13.70
2018-04-14T10:14:57.387Z,14.50
2018-04-14T10:17:25.830Z,12.67
2018-04-14T10:19:54.111Z,12.43
2018-04-14T10:22:22.395Z,12.47
2018-04-14T10:24:50.686Z,10.97
2018-04-14T10:27:18.957Z,9.93
2018-04-14T10:29:47.325Z,9.43
2018-04-14T10:32:15.598Z,8.63
2018-04-14T10:34:44.249Z,8.00
2018-04-14T10:37:12.822Z,7.27
2018-04-14T10:39:41.098Z,6.83
2018-04-14T10:42:10.487Z,6.23
2018-04-14T10:44:38.761Z,5.37
2018-04-14T10:47:07.263Z,5.43
2018-04-14T10:49:35.551Z,4.63
2018-04-14T10:52:03.818Z,5.70
2018-04-14T10:54:32.102Z,6.80
2018-04-14T10:57:00.409Z,6.23
2018-04-14T10:59:28.873Z,5.80
2018-04-14T11:01:57.161Z,7.30
2018-04-14T11:04:25.616Z,6.37
2018-04-14T11:06:53.901Z,6.33
2018-04-14T11:09:22.329Z,7.97
2018-04-14T11:11:50.619Z,7.87
2018-04-14T11:14:18.913Z,6.93
2018-04-14T11:16:47.486Z,4.90
2018-04-14T11:19:15.857Z,2.80
2018-04-14T11:21:44.374Z,2.33
2018-04-14T11:24:12.642Z,1.73
2018-04-14T11:26:40.937Z,1.83
2018-04-14T11:29:09.215Z,1.77
2018-04-14T11:31:37.575Z,1.70
2018-04-14T11:34:05.967Z,1.30
2018-04-14T11:36:34.230Z,1.20
2018-04-14T11:39:02.614Z,1.60
2018-04-14T11:41:31.009Z,1.27
2018-04-14T11:43:59.255Z,1.10
2018-04-14T11:46:28.165Z,1.23
2018-04-14T11:48:56.723Z,1.20
2018-04-14T11:51:24.990Z,1.07
2018-04-14T11:53:53.258Z,1.73
2018-04-14T11:56:21.516Z,2.17
2018-04-14T11:58:49.894Z,2.23
2018-04-14T12:01:18.259Z,2.70
2018-04-14T12:03:46.921Z,3.20
2018-04-14T12:06:15.310Z,3.00
2018-04-14T12:08:43.763Z,3.37
2018-04-14T12:11:12.082Z,3.60
2018-04-14T12:13:41.110Z,3.10
2018-04-14T12:16:09.506Z,3.10
2018-04-14T12:18:37.811Z,3.60
2018-04-14T12:21:06.250Z,3.83
2018-04-14T12:23:35.289Z,3.90
2018-04-14T12:26:03.558Z,3.93
2018-04-14T12:28:32.000Z,4.10
2018-04-14T12:31:00.331Z,3.83
2018-04-14T12:33:28.766Z,4.07
2018-04-14T12:35:57.400Z,3.70
2018-04-14T12:38:25.865Z,4.10
2018-04-14T12:40:54.163Z,3.90
2018-04-14T12:43:22.449Z,3.60
2018-04-14T12:45:50.993Z,3.50
2018-04-14T12:48:19.254Z,3.87
2018-04-14T12:50:48.034Z,4.17
2018-04-14T12:53:16.433Z,3.80
2018-04-14T12:55:45.492Z,3.50
2018-04-14T12:58:13.751Z,3.53
2018-04-14T13:00:42.798Z,3.60
2018-04-14T13:03:11.194Z,3.50
2018-04-14T13:05:39.461Z,3.47
2018-04-14T13:08:07.718Z,3.70
2018-04-14T13:10:35.982Z,3.13
2018-04-14T13:13:04.255Z,3.43
2018-04-14T13:15:33.004Z,4.17
2018-04-14T13:18:01.463Z,3.20
2018-04-14T13:20:29.818Z,3.43
2018-04-14T13:22:58.205Z,3.60
2018-04-14T13:25:26.565Z,3.23
2018-04-14T13:27:54.826Z,3.30
2018-04-14T13:30:23.089Z,3.23
2018-04-14T13:32:51.401Z,3.10
2018-04-14T13:35:19.796Z,2.87
2018-04-14T13:37:48.061Z,3.17
2018-04-14T13:40:16.579Z,2.60
2018-04-14T13:42:44.820Z,2.77
2018-04-14T13:45:13.290Z,2.73
2018-04-14T13:47:41.919Z,2.40
2018-04-14T13:50:10.384Z,2.50
2018-04-14T13:52:38.727Z,2.53
2018-04-14T13:55:07.063Z,2.87
2018-04-14T13:57:35.501Z,2.10
2018-04-14T14:00:03.903Z,2.40
2018-04-14T14:02:32.288Z,2.23
2018-04-14T14:05:00.665Z,2.10
2018-04-14T14:07:29.271Z,2.27
2018-04-14T14:09:57.543Z,2.40
2018-04-14T14:12:26.050Z,2.53
2018-04-14T14:14:54.474Z,1.93
2018-04-14T14:17:22.749Z,2.20
2018-04-14T14:19:51.538Z,2.50
2018-04-14T14:22:19.950Z,2.03
2018-04-14T14:24:48.206Z,2.30
2018-04-14T14:27:16.697Z,2.30
2018-04-14T14:29:45.076Z,2.10
2018-04-14T14:32:14.107Z,1.80
2018-04-14T14:34:42.431Z,1.90
2018-04-14T14:37:10.690Z,1.87
2018-04-14T14:39:38.962Z,2.00
2018-04-14T14:42:07.364Z,2.13
2018-04-14T14:44:36.583Z,2.27
2018-04-14T14:47:05.665Z,2.50
2018-04-14T14:49:33.931Z,2.43
2018-04-14T14:52:02.199Z,2.10
2018-04-14T14:54:30.687Z,1.90
2018-04-14T14:56:59.071Z,2.10
2018-04-14T14:59:27.329Z,1.90
2018-04-14T15:01:55.601Z,1.63
2018-04-14T15:04:24.138Z,1.70
2018-04-14T15:06:52.787Z,1.80
2018-04-14T15:09:21.875Z,1.60
2018-04-14T15:11:50.148Z,1.47
2018-04-14T15:14:18.419Z,1.43
2018-04-14T15:16:46.715Z,1.50
2018-04-14T15:19:15.092Z,1.70
2018-04-14T15:21:43.495Z,1.70
2018-04-14T15:24:11.786Z,1.60
2018-04-14T15:26:40.191Z,1.53
2018-04-14T15:29:08.594Z,1.20
2018-04-14T15:31:36.998Z,1.33
2018-04-14T15:34:05.360Z,1.33
2018-04-14T15:36:33.990Z,1.40
2018-04-14T15:39:02.275Z,1.40
2018-04-14T15:41:30.523Z,1.37
2018-04-14T15:43:59.009Z,1.27
2018-04-14T15:46:27.315Z,1.40
2018-04-14T15:48:55.638Z,1.40
2018-04-14T15:51:23.954Z,1.30
2018-04-14T15:53:52.362Z,1.43
2018-04-14T15:56:21.076Z,1.50
2018-04-14T15:58:49.474Z,1.40
2018-04-14T16:01:17.798Z,1.30
2018-04-14T16:03:46.182Z,1.43
2018-04-14T16:06:14.862Z,13.00
2018-04-14T16:08:43.295Z,3.03
2018-04-14T16:11:11.648Z,2.50
2018-04-14T16:13:40.082Z,2.23
2018-04-14T16:16:08.742Z,1.80
2018-04-14T16:18:37.240Z,1.80
2018-04-14T16:21:06.690Z,1.70
2018-04-14T16:23:35.082Z,1.87
2018-04-14T16:26:09.137Z,1.73
2018-04-14T16:28:37.402Z,1.60
2018-04-14T16:31:05.662Z,1.33
2018-04-14T16:33:33.934Z,1.40
2018-04-14T16:36:02.201Z,1.40
2018-04-14T16:38:31.005Z,1.20
2018-04-14T16:40:59.522Z,1.77
2018-04-14T16:43:27.797Z,1.70
2018-04-14T16:45:57.262Z,1.30
2018-04-14T16:48:25.534Z,1.77
2018-04-14T16:50:56.879Z,1.80
2018-04-14T16:53:26.841Z,1.67
2018-04-14T16:55:55.094Z,1.97
2018-04-14T16:58:24.263Z,2.00
2018-04-14T17:00:53.509Z,2.23
2018-04-14T17:03:22.637Z,1.80
2018-04-14T17:05:52.840Z,2.10
2018-04-14T17:08:23.148Z,2.10
2018-04-14T17:10:53.461Z,1.90
2018-04-14T17:13:21.974Z,2.30
2018-04-14T17:15:51.997Z,1.50
2018-04-14T17:18:20.265Z,1.90
2018-04-14T17:20:51.419Z,2.20
2018-04-14T17:23:19.843Z,2.27
2018-04-14T17:25:48.556Z,2.60
2018-04-14T17:28:16.933Z,2.13
2018-04-14T17:30:45.317Z,2.27
2018-04-14T17:33:13.612Z,1.67
2018-04-14T17:35:41.885Z,2.13
2018-04-14T17:38:10.178Z,1.83
2018-04-14T17:40:38.451Z,2.27
2018-04-14T17:43:07.483Z,2.00
2018-04-14T17:45:35.864Z,1.77
2018-04-14T17:48:04.201Z,2.13
2018-04-14T17:50:33.264Z,1.90
2018-04-14T17:53:01.535Z,1.60
2018-04-14T17:55:29.901Z,1.57
2018-04-14T17:57:58.183Z,2.20
2018-04-14T18:00:26.467Z,2.10
2018-04-14T18:02:55.110Z,2.00
2018-04-14T18:05:23.536Z,1.90
2018-04-14T18:07:51.802Z,2.07
2018-04-14T18:10:20.269Z,1.90
2018-04-14T18:12:48.566Z,1.83
2018-04-14T18:15:16.866Z,2.10
2018-04-14T18:17:45.139Z,1.73
2018-04-14T18:20:13.466Z,2.10
2018-04-14T18:22:41.731Z,1.83
2018-04-14T18:25:10.014Z,2.13
2018-04-14T18:27:38.317Z,1.60
2018-04-14T18:30:06.586Z,1.80
2018-04-14T18:32:35.106Z,1.87
2018-04-14T18:35:03.406Z,1.90
2018-04-14T18:37:31.969Z,1.73
2018-04-14T18:40:00.256Z,1.77
2018-04-14T18:42:28.507Z,2.10
2018-04-14T18:44:56.914Z,2.47
2018-04-14T18:47:25.238Z,2.50
2018-04-14T18:49:53.501Z,2.20
2018-04-14T18:52:21.771Z,2.00
2018-04-14T18:54:50.197Z,2.47
2018-04-14T18:57:18.472Z,2.20
2018-04-14T18:59:46.982Z,2.23
2018-04-14T19:02:16.067Z,2.50
2018-04-14T19:04:44.318Z,2.33
2018-04-14T19:07:12.639Z,3.10
2018-04-14T19:09:41.690Z,3.90
2018-04-14T19:12:10.973Z,3.77
2018-04-14T19:14:39.258Z,3.83
2018-04-14T19:17:08.801Z,4.03
2018-04-14T19:19:37.049Z,3.50
2018-04-14T19:22:05.383Z,3.50
2018-04-14T19:24:34.492Z,3.10
2018-04-14T19:27:03.098Z,3.47
2018-04-14T19:29:32.643Z,3.97
2018-04-14T19:32:00.930Z,3.00
2018-04-14T19:34:29.568Z,3.20
2018-04-14T19:37:02.655Z,3.10
2018-04-14T19:39:31.472Z,3.00
2018-04-14T19:42:00.888Z,2.87
2018-04-14T19:44:29.561Z,3.30
2018-04-14T19:46:57.859Z,2.70
2018-04-14T19:49:26.235Z,3.80
2018-04-14T19:51:54.539Z,3.87
2018-04-14T19:54:23.583Z,4.30
2018-04-14T19:56:51.879Z,4.50
2018-04-14T19:59:20.127Z,3.97
2018-04-14T20:01:48.389Z,3.90
2018-04-14T20:04:16.667Z,4.33
2018-04-14T20:06:45.294Z,4.23
2018-04-14T20:09:13.533Z,4.60
2018-04-14T20:11:42.922Z,4.70
2018-04-14T20:14:11.201Z,4.50
2018-04-14T20:16:41.372Z,4.47
2018-04-14T20:19:10.263Z,5.17
2018-04-14T20:21:38.630Z,4.17
2018-04-14T20:24:06.899Z,4.43
2018-04-14T20:26:35.161Z,5.03
2018-04-14T20:29:03.417Z,6.00
2018-04-14T20:31:31.690Z,5.20
2018-04-14T20:34:00.422Z,5.33
2018-04-14T20:36:28.847Z,5.40
2018-04-14T20:38:58.161Z,5.77
2018-04-14T20:41:27.825Z,6.07
2018-04-14T20:43:56.125Z,6.03
2018-04-14T20:46:24.737Z,5.50
2018-04-14T20:48:54.669Z,5.67
2018-04-14T20:51:23.329Z,5.57
2018-04-14T20:53:52.831Z,5.27
2018-04-14T20:56:22.769Z,6.13
2018-04-14T20:58:51.044Z,5.80
2018-04-14T21:01:19.772Z,6.20
2018-04-14T21:03:48.895Z,5.87
2018-04-14T21:06:18.338Z,6.27
2018-04-14T21:08:46.792Z,6.00
2018-04-14T21:11:15.063Z,6.57
2018-04-14T21:13:43.512Z,6.10
2018-04-14T21:16:11.770Z,6.50
2018-04-14T21:18:40.034Z,6.10
2018-04-14T21:21:08.965Z,6.33
2018-04-14T21:23:37.514Z,6.30
2018-04-14T21:26:05.799Z,6.83
2018-04-14T21:28:34.068Z,7.10
2018-04-14T21:31:02.354Z,6.80
2018-04-14T21:33:30.665Z,6.03
2018-04-14T21:35:59.705Z,6.30
2018-04-14T21:38:28.095Z,6.33
2018-04-14T21:40:56.373Z,6.40
2018-04-14T21:43:24.863Z,6.37
2018-04-14T21:45:53.186Z,6.43
2018-04-14T21:48:22.222Z,6.67
2018-04-14T21:50:50.632Z,6.03
2018-04-14T21:53:19.687Z,6.50
2018-04-14T21:55:48.566Z,6.27
2018-04-14T21:58:16.972Z,6.03
2018-04-14T22:00:45.789Z,5.63
2018-04-14T22:03:14.099Z,5.47
2018-04-14T22:05:42.370Z,6.23
2018-04-14T22:08:10.806Z,6.20
2018-04-14T22:10:39.105Z,6.07
2018-04-14T22:13:07.566Z,5.80
2018-04-14T22:15:35.920Z,5.80
2018-04-14T22:18:04.322Z,5.60
2018-04-14T22:20:32.579Z,5.37
2018-04-14T22:23:01.370Z,5.70
2018-04-14T22:25:29.779Z,5.77
2018-04-14T22:27:58.177Z,5.00
2018-04-14T22:30:28.603Z,5.60
2018-04-14T22:32:57.039Z,5.63
2018-04-14T22:35:26.439Z,5.50
2018-04-14T22:37:54.707Z,5.67
2018-04-14T22:40:23.476Z,5.17
2018-04-14T22:42:51.733Z,5.60
2018-04-14T22:45:20.770Z,5.63
2018-04-14T22:47:49.188Z,5.10
2018-04-14T22:50:17.461Z,5.10
2018-04-14T22:52:46.543Z,5.40
2018-04-14T22:55:14.802Z,5.40
2018-04-14T22:57:43.074Z,5.17
2018-04-14T23:00:11.369Z,5.00
2018-04-14T23:02:39.387Z,5.07
2018-04-14T23:05:08.457Z,5.73
2018-04-14T23:07:36.721Z,5.13
2018-04-14T23:10:05.214Z,5.53
2018-04-14T23:12:33.554Z,5.00
2018-04-14T23:15:01.946Z,5.03
2018-04-14T23:17:30.215Z,4.80
2018-04-14T23:19:58.523Z,5.13
2018-04-14T23:22:26.786Z,5.30
2018-04-14T23:24:55.167Z,5.37
2018-04-14T23:27:23.430Z,5.17
2018-04-14T23:29:52.182Z,5.20
2018-04-14T23:32:21.198Z,4.70
2018-04-14T23:34:49.528Z,4.97
2018-04-14T23:37:17.789Z,4.80
2018-04-14T23:39:46.342Z,5.13
2018-04-14T23:42:14.738Z,5.43
2018-04-14T23:44:42.998Z,5.20
2018-04-14T23:47:11.491Z,5.23
2018-04-14T23:49:39.757Z,4.83
2018-04-14T23:52:08.170Z,5.17
2018-04-14T23:54:36.666Z,5.10
2018-04-14T23:57:05.693Z,4.77
2018-04-14T23:59:34.014Z,5.10
